»·PEaware :: SWA1093 KBUR-KPHX

SWA1093 :: KBUR-KPHX

FLIGHT INFORMATION

Flight Status: Arrived
Operator:
Southwest Airlines
More flights by this operator :: More flights under this callsign
Pilot: Matthew M. (8235)
Aircraft: BOEING 737-800
(B738)
More flights by this aircraft type
Origin: KBUR Bob Hope-Burbank
United States
Destination: KPHX Phoenix Sky Harbor Intl
United States
More flights between these airports :: More routes between these airports
Route: +SLAPP1 HEC PRFUM WOTRO BRUSR1
File this flight plan on PilotEdge
Remarks: PBN / A1B1C1D1S1S2 DOF / 180109 REG / N8320J EET / KZAB0036 OPR / SWA PER / C
Altitude:
(Current/Filed)
39,000ft
Speed:
(Current/Filed)
447kts
Departed: 09-Jan-18 02:53 PM
Arrived: 09-Jan-18 04:03 PM
Distance/Time
Traveled:
320nm/1:10
Distance/Time
To Go:
Arrived

Flight Plot

Page will automatically refresh every two minutes.

Flight plan parsing failed; only flown route is shown


Map Options




Map Legend


Flown Route
Filed Route
Departure Airport
Arrival Airport
Navaid (VOR, NDB)
Fix

Horizontal Profiles

Position Reports

Time Latitude Longitude Heading Altitude Ground
Speed
09-Jan-18 14:32 34.196791 -118.351499 181 699ft 0kts
09-Jan-18 14:33 34.196791 -118.351499 181 699ft 0kts
09-Jan-18 14:34 34.196792 -118.351499 181 699ft 0kts
09-Jan-18 14:35 34.196791 -118.351499 181 699ft 0kts
09-Jan-18 14:36 34.196791 -118.351499 181 699ft 0kts
09-Jan-18 14:37 34.196792 -118.351499 181 700ft 0kts
09-Jan-18 14:38 34.196792 -118.351499 181 700ft 0kts
09-Jan-18 14:39 34.196792 -118.351499 181 700ft 0kts
09-Jan-18 14:40 34.196792 -118.351499 181 700ft 0kts
09-Jan-18 14:41 34.196792 -118.351499 181 700ft 0kts
09-Jan-18 14:42 34.196792 -118.351499 181 700ft 0kts
09-Jan-18 14:43 34.196792 -118.351499 181 700ft 0kts
09-Jan-18 14:44 34.197142 -118.351269 249 699ft 2kts
09-Jan-18 14:45 34.197165 -118.351049 270 699ft 0kts
09-Jan-18 14:46 34.197165 -118.351049 270 699ft 0kts
09-Jan-18 14:47 34.197167 -118.351317 270 699ft 9kts
09-Jan-18 14:48 34.197189 -118.353750 263 703ft 8kts
09-Jan-18 14:49 34.197212 -118.354919 273 706ft 0kts
09-Jan-18 14:50 34.197212 -118.354919 273 706ft 0kts
09-Jan-18 14:51 34.197223 -118.355128 272 707ft 0kts
09-Jan-18 14:52 34.199665 -118.355583 349 712ft 22kts
09-Jan-18 14:53 34.205010 -118.357076 347 731ft 16kts
09-Jan-18 14:54 34.208121 -118.357931 346 744ft 16kts
09-Jan-18 14:55 34.211454 -118.358923 328 760ft 6kts
09-Jan-18 14:56 34.211628 -118.359112 309 760ft 0kts
09-Jan-18 14:57 34.211628 -118.359112 309 760ft 0kts
09-Jan-18 14:58 34.211016 -118.360106 166 759ft 9kts
09-Jan-18 14:59 34.178699 -118.354563 189 2764ft 187kts
09-Jan-18 15:00 34.136031 -118.404021 245 4011ft 252kts
09-Jan-18 15:01 34.160026 -118.478764 328 4045ft 283kts
09-Jan-18 15:02 34.230282 -118.463053 47 8611ft 301kts
09-Jan-18 15:03 34.301941 -118.409783 23 12315ft 355kts
09-Jan-18 15:04 34.391240 -118.365203 20 16658ft 378kts
09-Jan-18 15:05 34.478854 -118.316766 38 18838ft 390kts
09-Jan-18 15:06 34.561421 -118.234063 40 21386ft 408kts
09-Jan-18 15:07 34.646099 -118.148802 44 24809ft 429kts
09-Jan-18 15:08 34.684271 -118.015884 81 28213ft 431kts
09-Jan-18 15:09 34.697366 -117.877562 89 31494ft 426kts
09-Jan-18 15:10 34.705227 -117.741997 90 34226ft 423kts
09-Jan-18 15:11 34.710491 -117.603944 90 36726ft 419kts
09-Jan-18 15:12 34.717747 -117.463435 87 38773ft 420kts
09-Jan-18 15:13 34.728604 -117.322020 88 39017ft 460kts
09-Jan-18 15:14 34.740911 -117.162126 87 38984ft 485kts
09-Jan-18 15:15 34.753690 -116.998817 90 38901ft 496kts
09-Jan-18 15:16 34.766916 -116.832041 93 38815ft 497kts
09-Jan-18 15:17 34.780380 -116.665004 93 38817ft 498kts
09-Jan-18 15:18 34.794056 -116.498471 93 38818ft 498kts
09-Jan-18 15:19 34.831998 -116.337446 79 38817ft 515kts
09-Jan-18 15:20 34.875072 -116.179660 79 38820ft 514kts
09-Jan-18 15:21 34.919539 -116.017402 79 38826ft 509kts
09-Jan-18 15:22 34.963631 -115.857239 79 38825ft 503kts
09-Jan-18 15:23 35.007354 -115.699137 79 38832ft 498kts
09-Jan-18 15:24 35.051123 -115.541627 79 38830ft 493kts
09-Jan-18 15:25 35.095250 -115.383463 78 38837ft 497kts
09-Jan-18 15:26 35.137737 -115.232109 79 38804ft 494kts
09-Jan-18 15:27 35.182177 -115.074234 78 38799ft 509kts
09-Jan-18 15:28 35.228075 -114.912059 78 38802ft 524kts
09-Jan-18 15:29 35.275138 -114.746547 78 38806ft 522kts
09-Jan-18 15:30 35.322896 -114.579340 77 38808ft 523kts
09-Jan-18 15:31 35.370624 -114.413027 77 38816ft 523kts
09-Jan-18 15:32 35.417549 -114.250491 78 38827ft 523kts
09-Jan-18 15:33 35.465813 -114.083874 77 38835ft 523kts
09-Jan-18 15:34 35.495320 -113.917381 116 38854ft 471kts
09-Jan-18 15:35 35.427627 -113.797308 136 38839ft 436kts
09-Jan-18 15:36 35.366320 -113.684457 138 38808ft 366kts
09-Jan-18 15:37 35.311930 -113.584769 138 35796ft 357kts
09-Jan-18 15:38 35.257186 -113.483920 137 31561ft 361kts
09-Jan-18 15:39 35.201770 -113.381734 135 28843ft 365kts
09-Jan-18 15:40 35.147300 -113.281520 135 27897ft 375kts
09-Jan-18 15:41 35.089966 -113.176563 135 26856ft 375kts
09-Jan-18 15:42 35.031791 -113.071517 135 25812ft 376kts
09-Jan-18 15:43 34.972568 -112.965570 134 24767ft 384kts
09-Jan-18 15:44 34.913331 -112.859380 134 23953ft 387kts
09-Jan-18 15:45 34.861435 -112.766244 134 23962ft 389kts
09-Jan-18 15:46 34.802326 -112.660013 134 23962ft 390kts
09-Jan-18 15:47 34.743678 -112.554437 134 23962ft 389kts
09-Jan-18 15:48 34.679949 -112.458438 150 23967ft 369kts
09-Jan-18 15:49 34.601984 -112.382076 150 23960ft 368kts
09-Jan-18 15:50 34.525707 -112.307667 151 23952ft 367kts
09-Jan-18 15:51 34.453778 -112.239223 159 23935ft 358kts
09-Jan-18 15:52 34.371758 -112.210968 174 23950ft 343kts
09-Jan-18 15:53 34.287354 -112.189041 174 22900ft 332kts
09-Jan-18 15:54 34.197333 -112.165827 172 19156ft 340kts
09-Jan-18 15:55 34.106488 -112.142343 171 15545ft 336kts
09-Jan-18 15:56 34.017873 -112.144925 186 12013ft 321kts
09-Jan-18 15:57 33.934518 -112.154052 185 11463ft 301kts
09-Jan-18 15:58 33.856500 -112.168039 189 10246ft 298kts
09-Jan-18 15:59 33.777132 -112.184877 188 8691ft 295kts
09-Jan-18 16:00 33.700960 -112.200989 187 8096ft 252kts
09-Jan-18 16:01 33.648630 -112.212014 186 7808ft 226kts
09-Jan-18 16:02 33.588254 -112.224731 186 7128ft 225kts
09-Jan-18 16:03 33.528901 -112.237503 186 6409ft 220kts
09-Jan-18 16:04 33.461941 -112.246669 158 6061ft 208kts
09-Jan-18 16:05 33.439457 -112.201354 97 5664ft 202kts
09-Jan-18 16:06 33.434479 -112.139935 110 3968ft 170kts
09-Jan-18 16:07 33.430173 -112.089195 90 2771ft 157kts
09-Jan-18 16:08 33.428971 -112.041070 96 1468ft 144kts
09-Jan-18 16:09 33.429033 -112.008597 77 1121ft 21kts
09-Jan-18 16:10 33.431427 -112.006231 2 1126ft 8kts
09-Jan-18 16:11 33.431937 -112.005736 60 1126ft 9kts
09-Jan-18 16:12 33.432858 -112.000714 90 1125ft 16kts
09-Jan-18 16:13 33.433971 -111.997679 69 1124ft 3kts
09-Jan-18 16:14 33.434040 -111.997330 75 1125ft 0kts

Navigation Log

Ident Type
Flight plan parsing failed, navigation log unavailable